sensor_id;sensor_type;location;lat;lon;timestamp;temperature;humidity
39585;DHT22;25278;53.674;10.014;2022-10-30T04:32:30;12.20;99.90
39585;DHT22;25278;53.674;10.014;2022-10-30T04:34:55;12.10;99.90
39585;DHT22;25278;53.674;10.014;2022-10-30T04:37:21;12.10;99.90
39585;DHT22;25278;53.674;10.014;2022-10-30T04:39:46;12.20;99.90
39585;DHT22;25278;53.674;10.014;2022-10-30T04:42:13;12.10;99.90
39585;DHT22;25278;53.674;10.014;2022-10-30T04:44:39;12.20;99.90
39585;DHT22;25278;53.674;10.014;2022-10-30T04:47:04;12.30;99.90
39585;DHT22;25278;53.674;10.014;2022-10-30T04:49:30;12.40;99.90
39585;DHT22;25278;53.674;10.014;2022-10-30T04:51:55;12.30;99.90
39585;DHT22;25278;53.674;10.014;2022-10-30T04:54:21;12.30;99.90
39585;DHT22;25278;53.674;10.014;2022-10-30T04:56:46;12.20;99.90
39585;DHT22;25278;53.674;10.014;2022-10-30T04:59:12;12.30;99.90
39585;DHT22;25278;53.674;10.014;2022-10-30T05:01:37;12.30;99.90
39585;DHT22;25278;53.674;10.014;2022-10-30T05:04:03;12.30;99.90
39585;DHT22;25278;53.674;10.014;2022-10-30T05:06:29;12.30;99.90
39585;DHT22;25278;53.674;10.014;2022-10-30T05:08:55;12.30;99.90
39585;DHT22;25278;53.674;10.014;2022-10-30T05:11:21;12.40;99.90
39585;DHT22;25278;53.674;10.014;2022-10-30T05:13:47;12.40;99.90
39585;DHT22;25278;53.674;10.014;2022-10-30T05:16:13;12.40;99.90
39585;DHT22;25278;53.674;10.014;2022-10-30T05:18:38;12.30;99.90
39585;DHT22;25278;53.674;10.014;2022-10-30T05:21:04;12.30;99.90
39585;DHT22;25278;53.674;10.014;2022-10-30T05:23:29;12.30;99.90
39585;DHT22;25278;53.674;10.014;2022-10-30T05:25:55;12.30;99.90
39585;DHT22;25278;53.674;10.014;2022-10-30T05:28:20;12.30;99.90
39585;DHT22;25278;53.674;10.014;2022-10-30T05:30:46;12.30;99.90
39585;DHT22;25278;53.674;10.014;2022-10-30T05:33:11;12.30;99.90
39585;DHT22;25278;53.674;10.014;2022-10-30T05:35:37;12.30;99.90
39585;DHT22;25278;53.674;10.014;2022-10-30T05:38:05;12.30;99.90
39585;DHT22;25278;53.674;10.014;2022-10-30T05:40:32;12.30;99.90
39585;DHT22;25278;53.674;10.014;2022-10-30T05:42:59;12.40;99.90
39585;DHT22;25278;53.674;10.014;2022-10-30T05:45:24;12.30;99.90
39585;DHT22;25278;53.674;10.014;2022-10-30T05:48:01;12.20;99.90
39585;DHT22;25278;53.674;10.014;2022-10-30T05:50:27;12.20;99.90
39585;DHT22;25278;53.674;10.014;2022-10-30T05:52:58;12.20;99.90
39585;DHT22;25278;53.674;10.014;2022-10-30T05:55:24;12.10;99.90
39585;DHT22;25278;53.674;10.014;2022-10-30T05:57:54;12.00;99.90
39585;DHT22;25278;53.674;10.014;2022-10-30T06:00:20;12.00;99.90
39585;DHT22;25278;53.674;10.014;2022-10-30T06:02:45;12.10;99.90
39585;DHT22;25278;53.674;10.014;2022-10-30T06:05:11;11.90;99.90
39585;DHT22;25278;53.674;10.014;2022-10-30T06:07:36;12.00;99.90
39585;DHT22;25278;53.674;10.014;2022-10-30T06:10:02;11.90;99.90
39585;DHT22;25278;53.674;10.014;2022-10-30T06:12:28;11.80;99.90
39585;DHT22;25278;53.674;10.014;2022-10-30T06:14:53;11.70;99.90
39585;DHT22;25278;53.674;10.014;2022-10-30T06:17:19;11.70;99.90
39585;DHT22;25278;53.674;10.014;2022-10-30T06:19:44;11.60;99.90
39585;DHT22;25278;53.674;10.014;2022-10-30T06:22:10;11.60;99.90
39585;DHT22;25278;53.674;10.014;2022-10-30T06:24:35;11.60;99.90
39585;DHT22;25278;53.674;10.014;2022-10-30T06:27:01;11.60;99.90
39585;DHT22;25278;53.674;10.014;2022-10-30T06:29:26;11.50;99.90
39585;DHT22;25278;53.674;10.014;2022-10-30T06:31:52;11.60;99.90
39585;DHT22;25278;53.674;10.014;2022-10-30T06:34:17;11.60;99.90
39585;DHT22;25278;53.674;10.014;2022-10-30T06:36:43;11.50;99.90
39585;DHT22;25278;53.674;10.014;2022-10-30T06:39:08;11.60;99.90
39585;DHT22;25278;53.674;10.014;2022-10-30T06:41:34;11.60;99.90
39585;DHT22;25278;53.674;10.014;2022-10-30T06:43:59;11.70;99.90
39585;DHT22;25278;53.674;10.014;2022-10-30T06:46:25;11.70;99.90
39585;DHT22;25278;53.674;10.014;2022-10-30T06:48:50;11.80;99.90
39585;DHT22;25278;53.674;10.014;2022-10-30T06:51:16;12.00;99.90
39585;DHT22;25278;53.674;10.014;2022-10-30T06:53:42;12.10;99.90
39585;DHT22;25278;53.674;10.014;2022-10-30T06:56:08;12.20;99.90
39585;DHT22;25278;53.674;10.014;2022-10-30T06:58:34;12.30;99.90
39585;DHT22;25278;53.674;10.014;2022-10-30T07:01:03;12.40;99.90
39585;DHT22;25278;53.674;10.014;2022-10-30T07:03:29;12.40;99.90
39585;DHT22;25278;53.674;10.014;2022-10-30T07:05:55;12.50;99.90
39585;DHT22;25278;53.674;10.014;2022-10-30T07:08:20;12.50;99.90
39585;DHT22;25278;53.674;10.014;2022-10-30T07:10:46;12.40;99.90
39585;DHT22;25278;53.674;10.014;2022-10-30T07:13:11;12.30;99.90
39585;DHT22;25278;53.674;10.014;2022-10-30T07:15:37;12.30;99.90
39585;DHT22;25278;53.674;10.014;2022-10-30T07:18:03;12.40;99.90
39585;DHT22;25278;53.674;10.014;2022-10-30T07:20:30;12.50;99.90
39585;DHT22;25278;53.674;10.014;2022-10-30T07:22:56;12.60;99.90
39585;DHT22;25278;53.674;10.014;2022-10-30T07:25:22;12.70;99.90
39585;DHT22;25278;53.674;10.014;2022-10-30T07:27:49;12.70;99.90
39585;DHT22;25278;53.674;10.014;2022-10-30T07:30:17;12.70;99.90
39585;DHT22;25278;53.674;10.014;2022-10-30T07:32:43;12.70;99.90
39585;DHT22;25278;53.674;10.014;2022-10-30T07:35:13;12.80;99.90
39585;DHT22;25278;53.674;10.014;2022-10-30T07:37:39;12.80;99.90
39585;DHT22;25278;53.674;10.014;2022-10-30T07:40:06;12.90;99.90
39585;DHT22;25278;53.674;10.014;2022-10-30T07:42:32;13.00;99.90
39585;DHT22;25278;53.674;10.014;2022-10-30T07:44:58;13.10;99.90
39585;DHT22;25278;53.674;10.014;2022-10-30T07:47:23;13.20;99.90
39585;DHT22;25278;53.674;10.014;2022-10-30T07:49:49;13.40;99.90
39585;DHT22;25278;53.674;10.014;2022-10-30T07:52:14;13.50;99.90
39585;DHT22;25278;53.674;10.014;2022-10-30T07:54:40;13.70;99.90
39585;DHT22;25278;53.674;10.014;2022-10-30T07:57:05;13.80;99.90
39585;DHT22;25278;53.674;10.014;2022-10-30T07:59:31;13.90;99.90
39585;DHT22;25278;53.674;10.014;2022-10-30T08:01:56;14.20;99.90
39585;DHT22;25278;53.674;10.014;2022-10-30T08:04:22;14.40;99.90
39585;DHT22;25278;53.674;10.014;2022-10-30T08:06:47;14.60;99.90
39585;DHT22;25278;53.674;10.014;2022-10-30T08:09:13;14.70;99.90
39585;DHT22;25278;53.674;10.014;2022-10-30T08:11:38;14.80;99.90
39585;DHT22;25278;53.674;10.014;2022-10-30T08:14:04;14.80;99.90
39585;DHT22;25278;53.674;10.014;2022-10-30T08:16:29;14.90;99.90
39585;DHT22;25278;53.674;10.014;2022-10-30T08:18:55;14.90;99.90
39585;DHT22;25278;53.674;10.014;2022-10-30T08:21:20;15.00;99.90
39585;DHT22;25278;53.674;10.014;2022-10-30T08:23:46;14.90;99.90
39585;DHT22;25278;53.674;10.014;2022-10-30T08:26:12;15.00;99.90
39585;DHT22;25278;53.674;10.014;2022-10-30T08:28:38;15.10;99.90
39585;DHT22;25278;53.674;10.014;2022-10-30T08:31:04;15.10;99.90
39585;DHT22;25278;53.674;10.014;2022-10-30T08:33:30;15.20;99.90
39585;DHT22;25278;53.674;10.014;2022-10-30T08:35:57;15.30;99.90
39585;DHT22;25278;53.674;10.014;2022-10-30T08:38:23;15.60;99.90
39585;DHT22;25278;53.674;10.014;2022-10-30T08:40:49;15.70;99.90
39585;DHT22;25278;53.674;10.014;2022-10-30T08:43:15;15.70;99.90
39585;DHT22;25278;53.674;10.014;2022-10-30T08:45:41;15.80;99.90
39585;DHT22;25278;53.674;10.014;2022-10-30T09:05:10;15.80;99.90
39585;DHT22;25278;53.674;10.014;2022-10-30T09:10:03;17.30;99.90
39585;DHT22;25278;53.674;10.014;2022-10-30T09:12:29;17.50;99.90
39585;DHT22;25278;53.674;10.014;2022-10-30T09:22:12;17.60;99.90
39585;DHT22;25278;53.674;10.014;2022-10-30T09:24:38;18.30;99.90
39585;DHT22;25278;53.674;10.014;2022-10-30T09:29:30;18.40;99.90
39585;DHT22;25278;53.674;10.014;2022-10-30T09:31:56;19.00;99.90
39585;DHT22;25278;53.674;10.014;2022-10-30T09:54:46;23.70;99.90
39585;DHT22;25278;53.674;10.014;2022-10-30T09:57:28;23.20;99.90
39585;DHT22;25278;53.674;10.014;2022-10-30T10:00:15;23.50;99.90
39585;DHT22;25278;53.674;10.014;2022-10-30T10:03:02;23.30;99.90
39585;DHT22;25278;53.674;10.014;2022-10-30T10:05:47;23.10;99.90
39585;DHT22;25278;53.674;10.014;2022-10-30T10:08:38;22.50;99.90
39585;DHT22;25278;53.674;10.014;2022-10-30T10:11:10;23.30;99.90
39585;DHT22;25278;53.674;10.014;2022-10-30T10:13:45;22.90;99.90
39585;DHT22;25278;53.674;10.014;2022-10-30T10:16:19;23.00;99.90
39585;DHT22;25278;53.674;10.014;2022-10-30T10:18:55;24.00;99.90
39585;DHT22;25278;53.674;10.014;2022-10-30T10:21:24;24.10;99.90
39585;DHT22;25278;53.674;10.014;2022-10-30T10:29:20;24.50;99.90
39585;DHT22;25278;53.674;10.014;2022-10-30T10:34:44;22.60;99.90
39585;DHT22;25278;53.674;10.014;2022-10-30T10:40:21;23.50;99.90
39585;DHT22;25278;53.674;10.014;2022-10-30T10:45:47;25.50;99.90
39585;DHT22;25278;53.674;10.014;2022-10-30T10:48:26;24.70;99.90
39585;DHT22;25278;53.674;10.014;2022-10-30T10:53:44;25.10;99.90
39585;DHT22;25278;53.674;10.014;2022-10-30T10:56:11;27.80;99.90
39585;DHT22;25278;53.674;10.014;2022-10-30T10:58:59;27.60;99.90
39585;DHT22;25278;53.674;10.014;2022-10-30T11:01:34;28.10;99.90
39585;DHT22;25278;53.674;10.014;2022-10-30T11:04:11;28.10;99.90
39585;DHT22;25278;53.674;10.014;2022-10-30T11:06:40;27.60;99.90
39585;DHT22;25278;53.674;10.014;2022-10-30T11:09:19;28.70;99.90
39585;DHT22;25278;53.674;10.014;2022-10-30T11:11:47;29.50;99.90
39585;DHT22;25278;53.674;10.014;2022-10-30T11:14:20;29.40;99.90
39585;DHT22;25278;53.674;10.014;2022-10-30T11:17:22;28.70;99.90
39585;DHT22;25278;53.674;10.014;2022-10-30T11:19:51;27.90;99.90
39585;DHT22;25278;53.674;10.014;2022-10-30T11:22:31;27.90;99.90
39585;DHT22;25278;53.674;10.014;2022-10-30T11:25:16;28.50;99.90
39585;DHT22;25278;53.674;10.014;2022-10-30T11:27:44;28.30;99.90
39585;DHT22;25278;53.674;10.014;2022-10-30T11:30:19;28.20;99.90
39585;DHT22;25278;53.674;10.014;2022-10-30T11:32:45;27.90;99.90
39585;DHT22;25278;53.674;10.014;2022-10-30T11:35:16;27.30;99.90
39585;DHT22;25278;53.674;10.014;2022-10-30T11:37:43;27.60;99.90
39585;DHT22;25278;53.674;10.014;2022-10-30T11:42:48;28.60;99.90
39585;DHT22;25278;53.674;10.014;2022-10-30T11:45:23;29.20;99.90
39585;DHT22;25278;53.674;10.014;2022-10-30T11:47:49;28.70;99.90
39585;DHT22;25278;53.674;10.014;2022-10-30T11:50:21;28.90;99.90
39585;DHT22;25278;53.674;10.014;2022-10-30T11:52:50;29.70;99.90
39585;DHT22;25278;53.674;10.014;2022-10-30T11:55:32;29.50;99.90
39585;DHT22;25278;53.674;10.014;2022-10-30T11:58:00;29.70;99.90
39585;DHT22;25278;53.674;10.014;2022-10-30T12:00:27;30.10;99.90
39585;DHT22;25278;53.674;10.014;2022-10-30T12:02:56;29.50;99.90
39585;DHT22;25278;53.674;10.014;2022-10-30T12:05:34;29.10;99.90
39585;DHT22;25278;53.674;10.014;2022-10-30T12:10:45;27.90;99.90
39585;DHT22;25278;53.674;10.014;2022-10-30T12:13:16;27.00;99.90
39585;DHT22;25278;53.674;10.014;2022-10-30T12:15:44;27.40;99.90
39585;DHT22;25278;53.674;10.014;2022-10-30T12:18:24;27.30;99.90
39585;DHT22;25278;53.674;10.014;2022-10-30T12:20:55;28.10;99.90
39585;DHT22;25278;53.674;10.014;2022-10-30T12:23:24;28.40;99.90
39585;DHT22;25278;53.674;10.014;2022-10-30T12:25:52;27.60;99.90
39585;DHT22;25278;53.674;10.014;2022-10-30T12:28:30;28.10;99.90
39585;DHT22;25278;53.674;10.014;2022-10-30T12:33:45;29.20;99.90
39585;DHT22;25278;53.674;10.014;2022-10-30T12:36:19;29.40;99.90
39585;DHT22;25278;53.674;10.014;2022-10-30T12:38:58;29.70;99.90
39585;DHT22;25278;53.674;10.014;2022-10-30T12:41:35;29.00;99.90
39585;DHT22;25278;53.674;10.014;2022-10-30T12:46:45;29.80;99.90
39585;DHT22;25278;53.674;10.014;2022-10-30T12:49:24;30.30;99.90
39585;DHT22;25278;53.674;10.014;2022-10-30T12:51:58;31.40;99.90
39585;DHT22;25278;53.674;10.014;2022-10-30T12:54:44;31.90;99.90
39585;DHT22;25278;53.674;10.014;2022-10-30T12:57:14;31.60;99.90
39585;DHT22;25278;53.674;10.014;2022-10-30T13:02:58;30.70;99.90
39585;DHT22;25278;53.674;10.014;2022-10-30T13:08:29;29.60;99.90
39585;DHT22;25278;53.674;10.014;2022-10-30T13:11:10;28.80;99.90
39585;DHT22;25278;53.674;10.014;2022-10-30T13:13:47;28.60;99.90
39585;DHT22;25278;53.674;10.014;2022-10-30T13:16:27;28.80;99.90
39585;DHT22;25278;53.674;10.014;2022-10-30T13:18:55;29.20;99.90
39585;DHT22;25278;53.674;10.014;2022-10-30T13:21:35;29.30;99.90
39585;DHT22;25278;53.674;10.014;2022-10-30T13:24:10;29.90;99.90
39585;DHT22;25278;53.674;10.014;2022-10-30T13:26:46;30.10;99.90
39585;DHT22;25278;53.674;10.014;2022-10-30T13:29:17;30.10;99.90
39585;DHT22;25278;53.674;10.014;2022-10-30T13:31:59;30.30;99.90
39585;DHT22;25278;53.674;10.014;2022-10-30T13:37:03;30.30;99.90
39585;DHT22;25278;53.674;10.014;2022-10-30T13:39:42;30.30;99.90
39585;DHT22;25278;53.674;10.014;2022-10-30T13:42:32;29.40;99.90
39585;DHT22;25278;53.674;10.014;2022-10-30T13:45:25;28.70;99.90
39585;DHT22;25278;53.674;10.014;2022-10-30T13:53:39;29.00;99.90
39585;DHT22;25278;53.674;10.014;2022-10-30T13:56:11;29.30;99.90
39585;DHT22;25278;53.674;10.014;2022-10-30T13:59:02;29.00;99.90
39585;DHT22;25278;53.674;10.014;2022-10-30T14:01:38;28.70;99.90
39585;DHT22;25278;53.674;10.014;2022-10-30T14:09:58;27.40;99.90
39585;DHT22;25278;53.674;10.014;2022-10-30T14:12:51;27.40;99.90
39585;DHT22;25278;53.674;10.014;2022-10-30T14:20:45;27.70;99.90
39585;DHT22;25278;53.674;10.014;2022-10-30T14:28:40;28.60;99.90
39585;DHT22;25278;53.674;10.014;2022-10-30T14:31:11;27.90;99.90
39585;DHT22;25278;53.674;10.014;2022-10-30T14:36:24;25.90;99.90
39585;DHT22;25278;53.674;10.014;2022-10-30T14:42:01;25.10;99.90
39585;DHT22;25278;53.674;10.014;2022-10-30T14:50:12;23.90;99.90
39585;DHT22;25278;53.674;10.014;2022-10-30T14:58:20;23.00;99.90
39585;DHT22;25278;53.674;10.014;2022-10-30T15:00:47;22.60;99.90
39585;DHT22;25278;53.674;10.014;2022-10-30T15:05:54;21.70;99.90
39585;DHT22;25278;53.674;10.014;2022-10-30T15:11:35;21.20;99.90
39585;DHT22;25278;53.674;10.014;2022-10-30T15:14:23;21.00;99.90
39585;DHT22;25278;53.674;10.014;2022-10-30T15:16:51;20.70;99.90
39585;DHT22;25278;53.674;10.014;2022-10-30T15:19:17;20.30;99.90
39585;DHT22;25278;53.674;10.014;2022-10-30T15:31:42;20.10;99.90
39585;DHT22;25278;53.674;10.014;2022-10-30T15:36:46;19.20;99.90
39585;DHT22;25278;53.674;10.014;2022-10-30T15:39:16;18.70;99.90
39585;DHT22;25278;53.674;10.014;2022-10-30T15:44:17;18.50;99.90
39585;DHT22;25278;53.674;10.014;2022-10-30T15:46:45;18.20;99.90
39585;DHT22;25278;53.674;10.014;2022-10-30T15:49:14;18.00;99.90
39585;DHT22;25278;53.674;10.014;2022-10-30T15:51:44;17.80;99.90
39585;DHT22;25278;53.674;10.014;2022-10-30T15:54:10;17.60;99.90
39585;DHT22;25278;53.674;10.014;2022-10-30T15:56:42;17.40;99.90
39585;DHT22;25278;53.674;10.014;2022-10-30T15:59:34;17.30;99.90
39585;DHT22;25278;53.674;10.014;2022-10-30T16:02:00;17.30;99.90
39585;DHT22;25278;53.674;10.014;2022-10-30T16:04:35;17.20;99.90
39585;DHT22;25278;53.674;10.014;2022-10-30T16:07:14;17.20;99.90
39585;DHT22;25278;53.674;10.014;2022-10-30T16:09:54;17.10;99.90
39585;DHT22;25278;53.674;10.014;2022-10-30T16:12:23;17.00;99.90
39585;DHT22;25278;53.674;10.014;2022-10-30T16:14:49;16.80;99.90
39585;DHT22;25278;53.674;10.014;2022-10-30T16:17:15;16.80;99.90
39585;DHT22;25278;53.674;10.014;2022-10-30T16:19:50;16.70;99.90
39585;DHT22;25278;53.674;10.014;2022-10-30T16:22:36;16.60;99.90
39585;DHT22;25278;53.674;10.014;2022-10-30T16:25:07;16.50;99.90
39585;DHT22;25278;53.674;10.014;2022-10-30T16:27:42;16.40;99.90
39585;DHT22;25278;53.674;10.014;2022-10-30T16:30:12;16.30;99.90
39585;DHT22;25278;53.674;10.014;2022-10-30T16:32:39;16.20;99.90
39585;DHT22;25278;53.674;10.014;2022-10-30T16:35:06;16.00;99.90
39585;DHT22;25278;53.674;10.014;2022-10-30T16:37:39;15.80;99.90
39585;DHT22;25278;53.674;10.014;2022-10-30T16:40:13;15.80;99.90
39585;DHT22;25278;53.674;10.014;2022-10-30T16:42:40;15.70;99.90
39585;DHT22;25278;53.674;10.014;2022-10-30T16:47:45;15.40;99.90
39585;DHT22;25278;53.674;10.014;2022-10-30T16:50:29;15.50;99.90
39585;DHT22;25278;53.674;10.014;2022-10-30T16:53:52;15.50;99.90
39585;DHT22;25278;53.674;10.014;2022-10-30T16:56:54;15.50;99.90
39585;DHT22;25278;53.674;10.014;2022-10-30T16:59:44;15.50;99.90
39585;DHT22;25278;53.674;10.014;2022-10-30T17:03:12;15.50;99.90
39585;DHT22;25278;53.674;10.014;2022-10-30T17:06:24;15.40;99.90
39585;DHT22;25278;53.674;10.014;2022-10-30T17:08:56;15.40;99.90
39585;DHT22;25278;53.674;10.014;2022-10-30T17:11:46;15.30;99.90
39585;DHT22;25278;53.674;10.014;2022-10-30T17:18:26;15.10;99.90
39585;DHT22;25278;53.674;10.014;2022-10-30T17:22:06;14.90;99.90
39585;DHT22;25278;53.674;10.014;2022-10-30T17:25:00;14.80;99.90
39585;DHT22;25278;53.674;10.014;2022-10-30T17:38:13;14.70;99.90
39585;DHT22;25278;53.674;10.014;2022-10-30T17:41:03;14.60;99.90
39585;DHT22;25278;53.674;10.014;2022-10-30T17:44:47;14.50;99.90
39585;DHT22;25278;53.674;10.014;2022-10-30T17:48:16;14.50;99.90
39585;DHT22;25278;53.674;10.014;2022-10-30T17:54:59;14.30;99.90
39585;DHT22;25278;53.674;10.014;2022-10-30T17:57:29;14.30;99.90
39585;DHT22;25278;53.674;10.014;2022-10-30T18:02:46;14.20;99.90
39585;DHT22;25278;53.674;10.014;2022-10-30T18:05:38;14.20;99.90
39585;DHT22;25278;53.674;10.014;2022-10-30T18:08:46;14.20;99.90
39585;DHT22;25278;53.674;10.014;2022-10-30T18:16:56;14.10;99.90
39585;DHT22;25278;53.674;10.014;2022-10-30T18:19:22;14.10;99.90
39585;DHT22;25278;53.674;10.014;2022-10-30T18:21:47;14.10;99.90
39585;DHT22;25278;53.674;10.014;2022-10-30T18:24:17;14.10;99.90
39585;DHT22;25278;53.674;10.014;2022-10-30T18:26:43;14.00;99.90
39585;DHT22;25278;53.674;10.014;2022-10-30T18:29:10;14.00;99.90
39585;DHT22;25278;53.674;10.014;2022-10-30T18:31:36;14.00;99.90
39585;DHT22;25278;53.674;10.014;2022-10-30T18:34:01;13.90;99.90
39585;DHT22;25278;53.674;10.014;2022-10-30T18:36:27;13.80;99.90
39585;DHT22;25278;53.674;10.014;2022-10-30T18:38:53;13.90;99.90
39585;DHT22;25278;53.674;10.014;2022-10-30T18:41:42;13.80;99.90
39585;DHT22;25278;53.674;10.014;2022-10-30T18:44:16;13.80;99.90
39585;DHT22;25278;53.674;10.014;2022-10-30T18:46:42;13.70;99.90
39585;DHT22;25278;53.674;10.014;2022-10-30T18:49:08;13.80;99.90
39585;DHT22;25278;53.674;10.014;2022-10-30T18:51:34;13.80;99.90
39585;DHT22;25278;53.674;10.014;2022-10-30T18:53:59;13.70;99.90
39585;DHT22;25278;53.674;10.014;2022-10-30T18:56:29;13.70;99.90
39585;DHT22;25278;53.674;10.014;2022-10-30T18:58:57;13.70;99.90
39585;DHT22;25278;53.674;10.014;2022-10-30T19:01:23;13.70;99.90
39585;DHT22;25278;53.674;10.014;2022-10-30T19:03:48;13.60;99.90
39585;DHT22;25278;53.674;10.014;2022-10-30T19:06:16;13.60;99.90
39585;DHT22;25278;53.674;10.014;2022-10-30T19:08:42;13.50;99.90
39585;DHT22;25278;53.674;10.014;2022-10-30T19:11:13;13.40;99.90
39585;DHT22;25278;53.674;10.014;2022-10-30T19:13:39;13.40;99.90
39585;DHT22;25278;53.674;10.014;2022-10-30T19:16:09;13.40;99.90
39585;DHT22;25278;53.674;10.014;2022-10-30T19:18:35;13.40;99.90
39585;DHT22;25278;53.674;10.014;2022-10-30T19:21:01;13.40;99.90
39585;DHT22;25278;53.674;10.014;2022-10-30T19:23:27;13.40;99.90
39585;DHT22;25278;53.674;10.014;2022-10-30T19:25:52;13.40;99.90
39585;DHT22;25278;53.674;10.014;2022-10-30T19:28:19;13.30;99.90
39585;DHT22;25278;53.674;10.014;2022-10-30T19:30:45;13.20;99.90
39585;DHT22;25278;53.674;10.014;2022-10-30T19:33:15;13.20;99.90
39585;DHT22;25278;53.674;10.014;2022-10-30T19:35:41;13.20;99.90
39585;DHT22;25278;53.674;10.014;2022-10-30T19:38:11;13.20;99.90
39585;DHT22;25278;53.674;10.014;2022-10-30T19:40:38;13.30;99.90
39585;DHT22;25278;53.674;10.014;2022-10-30T19:43:04;13.30;99.90
39585;DHT22;25278;53.674;10.014;2022-10-30T19:45:31;13.20;99.90
39585;DHT22;25278;53.674;10.014;2022-10-30T19:47:59;13.30;99.90
39585;DHT22;25278;53.674;10.014;2022-10-30T19:50:32;13.30;99.90
39585;DHT22;25278;53.674;10.014;2022-10-30T19:52:58;13.30;99.90
39585;DHT22;25278;53.674;10.014;2022-10-30T19:55:26;13.30;99.90
39585;DHT22;25278;53.674;10.014;2022-10-30T19:57:53;13.20;99.90
39585;DHT22;25278;53.674;10.014;2022-10-30T20:00:24;13.20;99.90
39585;DHT22;25278;53.674;10.014;2022-10-30T20:02:54;13.10;99.90
39585;DHT22;25278;53.674;10.014;2022-10-30T20:05:23;13.10;99.90
39585;DHT22;25278;53.674;10.014;2022-10-30T20:08:20;13.10;99.90
39585;DHT22;25278;53.674;10.014;2022-10-30T20:13:15;13.00;99.90
39585;DHT22;25278;53.674;10.014;2022-10-30T20:15:41;13.00;99.90
39585;DHT22;25278;53.674;10.014;2022-10-30T20:18:15;12.90;99.90
39585;DHT22;25278;53.674;10.014;2022-10-30T20:20:47;12.90;99.90
39585;DHT22;25278;53.674;10.014;2022-10-30T20:23:13;12.80;99.90
39585;DHT22;25278;53.674;10.014;2022-10-30T20:25:38;12.80;99.90
39585;DHT22;25278;53.674;10.014;2022-10-30T20:28:20;12.70;99.90
39585;DHT22;25278;53.674;10.014;2022-10-30T20:30:46;12.70;99.90
39585;DHT22;25278;53.674;10.014;2022-10-30T20:33:12;12.70;99.90
39585;DHT22;25278;53.674;10.014;2022-10-30T20:35:38;12.70;99.90
39585;DHT22;25278;53.674;10.014;2022-10-30T20:38:03;12.60;99.90
39585;DHT22;25278;53.674;10.014;2022-10-30T20:40:29;12.70;99.90
39585;DHT22;25278;53.674;10.014;2022-10-30T20:42:59;12.60;99.90
39585;DHT22;25278;53.674;10.014;2022-10-30T20:45:26;12.60;99.90
39585;DHT22;25278;53.674;10.014;2022-10-30T20:47:52;12.60;99.90
39585;DHT22;25278;53.674;10.014;2022-10-30T20:50:19;12.60;99.90
39585;DHT22;25278;53.674;10.014;2022-10-30T20:52:45;12.60;99.90
39585;DHT22;25278;53.674;10.014;2022-10-30T20:55:11;12.60;99.90
39585;DHT22;25278;53.674;10.014;2022-10-30T20:57:37;12.50;99.90
39585;DHT22;25278;53.674;10.014;2022-10-30T21:00:04;12.60;99.90
39585;DHT22;25278;53.674;10.014;2022-10-30T21:02:30;12.70;99.90
39585;DHT22;25278;53.674;10.014;2022-10-30T21:04:55;12.70;99.90
39585;DHT22;25278;53.674;10.014;2022-10-30T21:07:22;12.60;99.90
39585;DHT22;25278;53.674;10.014;2022-10-30T21:09:48;12.60;99.90
39585;DHT22;25278;53.674;10.014;2022-10-30T21:12:14;12.60;99.90
39585;DHT22;25278;53.674;10.014;2022-10-30T21:14:39;12.50;99.90
39585;DHT22;25278;53.674;10.014;2022-10-30T21:17:05;12.50;99.90
39585;DHT22;25278;53.674;10.014;2022-10-30T21:19:30;12.40;99.90
39585;DHT22;25278;53.674;10.014;2022-10-30T21:21:56;12.40;99.90
39585;DHT22;25278;53.674;10.014;2022-10-30T21:24:21;12.40;99.90
39585;DHT22;25278;53.674;10.014;2022-10-30T21:26:47;12.30;99.90
39585;DHT22;25278;53.674;10.014;2022-10-30T21:29:12;12.30;99.90
39585;DHT22;25278;53.674;10.014;2022-10-30T21:31:38;12.30;99.90
39585;DHT22;25278;53.674;10.014;2022-10-30T21:34:03;12.30;99.90
39585;DHT22;25278;53.674;10.014;2022-10-30T21:36:29;12.30;99.90
39585;DHT22;25278;53.674;10.014;2022-10-30T21:38:56;12.20;99.90
39585;DHT22;25278;53.674;10.014;2022-10-30T21:41:22;12.10;99.90
39585;DHT22;25278;53.674;10.014;2022-10-30T21:43:54;12.20;99.90
39585;DHT22;25278;53.674;10.014;2022-10-30T21:46:21;12.20;99.90
39585;DHT22;25278;53.674;10.014;2022-10-30T21:48:47;12.20;99.90
39585;DHT22;25278;53.674;10.014;2022-10-30T21:51:18;12.30;99.90
39585;DHT22;25278;53.674;10.014;2022-10-30T21:53:44;12.20;99.90
39585;DHT22;25278;53.674;10.014;2022-10-30T21:56:17;12.10;99.90
39585;DHT22;25278;53.674;10.014;2022-10-30T21:58:42;12.10;99.90
39585;DHT22;25278;53.674;10.014;2022-10-30T22:01:28;12.10;99.90
39585;DHT22;25278;53.674;10.014;2022-10-30T22:03:54;12.10;99.90
39585;DHT22;25278;53.674;10.014;2022-10-30T22:06:21;11.90;99.90
39585;DHT22;25278;53.674;10.014;2022-10-30T22:08:48;12.00;99.90
39585;DHT22;25278;53.674;10.014;2022-10-30T22:11:15;11.90;99.90
39585;DHT22;25278;53.674;10.014;2022-10-30T22:13:41;11.90;99.90
39585;DHT22;25278;53.674;10.014;2022-10-30T22:16:10;11.90;99.90
39585;DHT22;25278;53.674;10.014;2022-10-30T22:18:36;11.90;99.90
39585;DHT22;25278;53.674;10.014;2022-10-30T22:21:07;11.90;99.90
39585;DHT22;25278;53.674;10.014;2022-10-30T22:23:34;11.90;99.90
39585;DHT22;25278;53.674;10.014;2022-10-30T22:26:06;11.90;99.90
39585;DHT22;25278;53.674;10.014;2022-10-30T22:28:32;11.80;99.90
39585;DHT22;25278;53.674;10.014;2022-10-30T22:31:03;11.80;99.90
39585;DHT22;25278;53.674;10.014;2022-10-30T22:33:29;11.70;99.90
39585;DHT22;25278;53.674;10.014;2022-10-30T22:35:55;11.70;99.90
39585;DHT22;25278;53.674;10.014;2022-10-30T22:38:21;11.70;99.90
39585;DHT22;25278;53.674;10.014;2022-10-30T22:40:46;11.70;99.90
39585;DHT22;25278;53.674;10.014;2022-10-30T22:43:12;11.70;99.90
39585;DHT22;25278;53.674;10.014;2022-10-30T22:45:37;11.80;99.90
39585;DHT22;25278;53.674;10.014;2022-10-30T22:48:03;11.70;99.90
39585;DHT22;25278;53.674;10.014;2022-10-30T22:50:28;11.70;99.90
39585;DHT22;25278;53.674;10.014;2022-10-30T22:52:56;11.70;99.90
39585;DHT22;25278;53.674;10.014;2022-10-30T22:55:22;11.70;99.90
39585;DHT22;25278;53.674;10.014;2022-10-30T22:57:52;11.70;99.90
39585;DHT22;25278;53.674;10.014;2022-10-30T23:00:24;11.70;99.90
39585;DHT22;25278;53.674;10.014;2022-10-30T23:02:50;11.70;99.90
39585;DHT22;25278;53.674;10.014;2022-10-30T23:05:16;11.60;99.90
39585;DHT22;25278;53.674;10.014;2022-10-30T23:07:41;11.50;99.90